createdAt,value
2023-03-17T00:02:05.598Z,8.02
2023-03-17T00:04:33.393Z,8.19
2023-03-17T00:07:03.284Z,7.85
2023-03-17T00:09:30.118Z,7.85
2023-03-17T00:11:56.996Z,7.73
2023-03-17T00:14:24.312Z,7.59
2023-03-17T00:16:53.713Z,7.81
2023-03-17T00:19:33.664Z,8.02
2023-03-17T00:22:02.804Z,8.08
2023-03-17T00:24:30.146Z,8.08
2023-03-17T00:26:59.645Z,7.81
2023-03-17T00:29:26.797Z,7.66
2023-03-17T00:31:55.304Z,7.73
2023-03-17T00:34:22.264Z,7.83
2023-03-17T00:36:51.144Z,7.78
2023-03-17T00:39:18.606Z,7.91
2023-03-17T00:41:49.024Z,7.78
2023-03-17T00:44:15.910Z,7.89
2023-03-17T00:46:42.809Z,7.66
2023-03-17T00:49:21.080Z,7.59
2023-03-17T00:51:48.711Z,7.70
2023-03-17T00:54:19.478Z,7.71
2023-03-17T00:56:48.075Z,7.79
2023-03-17T00:59:28.100Z,7.73
2023-03-17T01:01:56.146Z,7.76
2023-03-17T01:04:23.937Z,7.66
2023-03-17T01:06:59.247Z,7.78
2023-03-17T01:09:27.718Z,7.82
2023-03-17T01:11:55.868Z,7.76
2023-03-17T01:14:26.026Z,7.68
2023-03-17T01:16:55.142Z,7.86
2023-03-17T01:19:22.343Z,7.82
2023-03-17T01:21:49.241Z,7.88
2023-03-17T01:24:18.672Z,7.81
2023-03-17T01:26:45.885Z,7.77
2023-03-17T01:29:13.771Z,7.64
2023-03-17T01:31:41.154Z,7.67
2023-03-17T01:34:08.056Z,7.70
2023-03-17T01:36:35.631Z,7.59
2023-03-17T01:39:05.217Z,7.63
2023-03-17T01:41:40.133Z,7.80
2023-03-17T01:44:14.465Z,7.63
2023-03-17T01:46:45.375Z,7.79
2023-03-17T01:49:27.206Z,8.00
2023-03-17T01:51:58.946Z,7.96
2023-03-17T01:54:34.997Z,7.91
2023-03-17T01:57:46.948Z,8.16
2023-03-17T02:00:20.141Z,7.93
2023-03-17T02:02:58.184Z,7.84
2023-03-17T02:05:29.905Z,7.39
2023-03-17T02:07:59.075Z,7.59
2023-03-17T02:10:30.473Z,7.41
2023-03-17T02:13:03.823Z,7.34
2023-03-17T02:15:52.189Z,7.47
2023-03-17T02:18:21.807Z,7.46
2023-03-17T02:20:48.577Z,7.59
2023-03-17T02:23:24.773Z,7.49
2023-03-17T02:25:53.902Z,7.68
2023-03-17T02:28:28.324Z,7.59
2023-03-17T02:30:55.307Z,7.41
2023-03-17T02:33:24.330Z,7.52
2023-03-17T02:35:53.697Z,7.66
2023-03-17T02:38:20.692Z,7.59
2023-03-17T02:40:50.233Z,7.62
2023-03-17T02:43:17.488Z,7.70
2023-03-17T02:45:44.398Z,7.90
2023-03-17T02:48:11.966Z,7.61
2023-03-17T02:50:41.465Z,7.16
2023-03-17T02:53:13.036Z,7.34
2023-03-17T02:55:43.657Z,7.39
2023-03-17T02:58:10.581Z,7.26
2023-03-17T03:00:38.804Z,7.31
2023-03-17T03:03:07.884Z,7.09
2023-03-17T03:05:35.374Z,7.07
2023-03-17T03:08:05.246Z,7.19
2023-03-17T03:10:32.675Z,7.48
2023-03-17T03:12:59.645Z,7.33
2023-03-17T03:15:31.071Z,7.23
2023-03-17T03:17:57.970Z,7.29
2023-03-17T03:20:27.959Z,7.15
2023-03-17T03:22:57.482Z,7.32
2023-03-17T03:25:24.312Z,7.49
2023-03-17T03:27:51.626Z,7.39
2023-03-17T03:30:19.256Z,7.58
2023-03-17T03:32:48.395Z,7.61
2023-03-17T03:35:15.428Z,7.42
2023-03-17T03:37:45.383Z,7.49
2023-03-17T03:40:15.120Z,7.61
2023-03-17T03:42:44.496Z,7.60
2023-03-17T03:45:11.670Z,7.80
2023-03-17T03:47:38.766Z,7.75
2023-03-17T03:50:06.802Z,7.63
2023-03-17T03:52:33.763Z,7.54
2023-03-17T03:55:00.952Z,7.43
2023-03-17T03:57:30.850Z,7.34
2023-03-17T04:00:03.021Z,7.38
2023-03-17T04:02:30.886Z,7.35
2023-03-17T04:05:02.930Z,7.26
2023-03-17T04:07:30.088Z,7.16
2023-03-17T04:09:59.773Z,7.10
2023-03-17T04:12:29.143Z,7.09
2023-03-17T04:14:58.205Z,7.12
2023-03-17T04:17:27.396Z,7.00
2023-03-17T04:19:57.270Z,6.86
2023-03-17T04:22:24.593Z,6.82
2023-03-17T04:24:51.502Z,6.89
2023-03-17T04:27:23.145Z,6.67
2023-03-17T04:29:50.049Z,6.73
2023-03-17T04:32:17.105Z,6.78
2023-03-17T04:34:44.052Z,6.75
2023-03-17T04:37:12.335Z,6.73
2023-03-17T04:39:42.045Z,6.70
2023-03-17T04:42:09.080Z,6.75
2023-03-17T04:44:36.505Z,6.79
2023-03-17T04:47:03.524Z,6.96
2023-03-17T04:49:32.897Z,6.84
2023-03-17T04:52:01.952Z,6.70
2023-03-17T04:54:28.811Z,6.80
2023-03-17T04:56:56.163Z,6.94
2023-03-17T04:59:25.590Z,6.72
2023-03-17T05:01:54.534Z,6.73
2023-03-17T05:04:31.213Z,6.75
2023-03-17T05:06:59.104Z,6.92
2023-03-17T05:09:29.022Z,7.12
2023-03-17T05:11:58.501Z,7.00
2023-03-17T05:14:27.824Z,6.84
2023-03-17T05:16:57.081Z,6.67
2023-03-17T05:19:26.907Z,6.44
2023-03-17T05:21:53.868Z,6.64
2023-03-17T05:24:23.206Z,6.73
2023-03-17T05:26:50.070Z,6.80
2023-03-17T05:29:17.259Z,6.50
2023-03-17T05:31:44.510Z,6.54
2023-03-17T05:34:11.361Z,6.51
2023-03-17T05:36:43.517Z,6.55
2023-03-17T05:39:14.344Z,6.64
2023-03-17T05:41:41.499Z,6.35
2023-03-17T05:44:08.789Z,6.48
2023-03-17T05:46:35.865Z,6.35
2023-03-17T05:49:06.211Z,6.42
2023-03-17T05:51:34.770Z,6.33
2023-03-17T05:54:05.223Z,6.46
2023-03-17T05:56:33.719Z,6.36
2023-03-17T05:59:01.653Z,6.30
2023-03-17T06:01:32.427Z,6.36
2023-03-17T06:04:01.896Z,6.45
2023-03-17T06:06:28.989Z,6.55
2023-03-17T06:08:58.067Z,6.58
2023-03-17T06:11:24.927Z,6.97
2023-03-17T06:13:51.834Z,7.24
2023-03-17T06:16:19.662Z,6.74
2023-03-17T06:18:49.737Z,6.88
2023-03-17T06:21:16.919Z,6.98
2023-03-17T06:23:48.596Z,7.47
2023-03-17T06:26:17.934Z,7.41
2023-03-17T06:28:44.948Z,7.40
2023-03-17T06:31:14.302Z,7.93
2023-03-17T06:33:41.686Z,7.88
2023-03-17T06:36:08.837Z,8.16
2023-03-17T06:38:35.959Z,8.27
2023-03-17T06:41:03.421Z,8.52
2023-03-17T06:43:32.665Z,9.04
2023-03-17T06:45:59.543Z,10.09
2023-03-17T06:48:26.433Z,9.63
2023-03-17T06:50:53.262Z,9.73
2023-03-17T06:53:20.707Z,10.54
2023-03-17T06:55:48.277Z,11.59
2023-03-17T06:58:16.008Z,11.45
2023-03-17T07:00:47.166Z,11.54
2023-03-17T07:03:14.791Z,11.89
2023-03-17T07:05:42.185Z,11.93
2023-03-17T07:08:09.294Z,12.41
2023-03-17T07:10:36.700Z,12.51
2023-03-17T07:13:07.731Z,12.47
2023-03-17T07:15:35.958Z,13.09
2023-03-17T07:18:03.991Z,12.70
2023-03-17T07:20:33.854Z,13.14
2023-03-17T07:23:03.415Z,12.18
2023-03-17T07:25:32.837Z,11.95
2023-03-17T07:27:59.928Z,12.80
2023-03-17T07:30:29.133Z,14.28
2023-03-17T07:32:57.430Z,13.53
2023-03-17T07:35:27.762Z,13.38
2023-03-17T07:37:55.007Z,14.17
2023-03-17T07:40:24.927Z,14.25
2023-03-17T07:42:55.284Z,14.88
2023-03-17T07:45:24.831Z,15.51
2023-03-17T07:47:54.349Z,15.45
2023-03-17T07:50:21.256Z,16.05
2023-03-17T07:52:52.728Z,15.80
2023-03-17T07:55:21.885Z,15.80
2023-03-17T07:57:48.877Z,16.08
2023-03-17T08:00:17.220Z,16.03
2023-03-17T08:02:44.524Z,16.13
2023-03-17T08:05:11.593Z,17.45
2023-03-17T08:07:38.904Z,16.78
2023-03-17T08:10:11.558Z,17.03
2023-03-17T08:12:41.879Z,17.22
2023-03-17T08:15:12.279Z,17.56
2023-03-17T08:17:40.111Z,18.10
2023-03-17T08:20:08.321Z,19.14
2023-03-17T08:22:37.895Z,19.76
2023-03-17T08:25:09.530Z,19.30
2023-03-17T08:27:41.966Z,18.37
2023-03-17T08:30:10.008Z,17.50
2023-03-17T08:32:39.494Z,17.72
2023-03-17T08:35:06.979Z,17.70
2023-03-17T08:37:33.988Z,17.97
2023-03-17T08:40:01.253Z,19.90
2023-03-17T08:42:28.195Z,20.29
2023-03-17T08:44:55.314Z,20.35
2023-03-17T08:47:27.422Z,20.78
2023-03-17T08:49:56.186Z,20.86
2023-03-17T08:52:26.092Z,21.80
2023-03-17T08:54:58.010Z,20.94
2023-03-17T08:57:29.653Z,19.24
2023-03-17T08:59:58.979Z,19.34
2023-03-17T09:02:25.892Z,18.97
2023-03-17T09:04:52.898Z,21.02
2023-03-17T09:07:20.010Z,21.80
2023-03-17T09:09:47.671Z,20.97
2023-03-17T09:12:17.112Z,19.53
2023-03-17T09:14:45.202Z,19.86
2023-03-17T09:17:14.396Z,20.27
2023-03-17T09:19:41.678Z,21.49
2023-03-17T09:22:14.760Z,20.96
2023-03-17T09:24:41.986Z,21.13
2023-03-17T09:27:15.044Z,21.65
2023-03-17T09:29:44.420Z,22.36
2023-03-17T09:32:11.410Z,22.86
2023-03-17T09:34:38.487Z,23.63
2023-03-17T09:37:09.776Z,22.97
2023-03-17T09:39:36.686Z,20.71
2023-03-17T09:42:33.328Z,19.42
2023-03-17T09:45:35.173Z,21.75
2023-03-17T09:48:25.178Z,22.94
2023-03-17T09:50:58.996Z,24.09
2023-03-17T09:53:54.132Z,24.78
2023-03-17T09:56:24.703Z,25.22
2023-03-17T09:58:57.989Z,26.08
2023-03-17T10:01:25.373Z,25.73
2023-03-17T10:03:55.777Z,24.82
2023-03-17T10:06:36.300Z,23.82
2023-03-17T10:09:13.905Z,24.04
2023-03-17T10:11:47.087Z,24.57
2023-03-17T10:14:32.038Z,24.42
2023-03-17T10:17:09.264Z,23.19
2023-03-17T10:19:48.617Z,22.84
2023-03-17T10:22:31.153Z,22.86
2023-03-17T10:25:15.656Z,24.55
2023-03-17T10:27:53.173Z,23.74
2023-03-17T10:30:22.666Z,22.30
2023-03-17T10:32:52.430Z,23.59
2023-03-17T10:35:22.079Z,24.71
2023-03-17T10:37:49.323Z,25.74
2023-03-17T10:40:31.088Z,25.85
2023-03-17T10:43:08.646Z,25.97
2023-03-17T10:45:43.290Z,24.42
2023-03-17T10:48:19.024Z,25.34
2023-03-17T10:50:49.355Z,24.49
2023-03-17T10:53:29.249Z,25.78
2023-03-17T10:56:09.430Z,26.20
2023-03-17T10:58:50.121Z,26.22
2023-03-17T11:01:43.408Z,26.47
2023-03-17T11:04:32.793Z,27.51
2023-03-17T11:07:10.321Z,27.00
2023-03-17T11:09:41.123Z,26.78
2023-03-17T11:12:28.488Z,26.76
2023-03-17T11:15:04.777Z,27.16
2023-03-17T11:17:58.618Z,26.27
2023-03-17T11:20:47.129Z,26.20
2023-03-17T11:23:26.532Z,25.61
2023-03-17T11:26:33.966Z,25.64
2023-03-17T11:29:43.771Z,26.90
2023-03-17T11:32:30.298Z,26.01
2023-03-17T11:35:41.335Z,25.49
2023-03-17T11:38:26.375Z,25.70
2023-03-17T11:41:15.050Z,25.88
2023-03-17T11:44:09.001Z,24.73
2023-03-17T11:46:48.912Z,24.76
2023-03-17T11:49:36.964Z,24.21
2023-03-17T11:52:10.971Z,24.72
2023-03-17T11:54:58.145Z,25.17
2023-03-17T11:57:37.437Z,25.07
2023-03-17T12:00:16.621Z,24.47
2023-03-17T12:03:00.765Z,24.07
2023-03-17T12:05:33.696Z,24.38
2023-03-17T12:08:39.670Z,26.20
2023-03-17T12:11:15.346Z,27.65
2023-03-17T12:13:53.933Z,28.91
2023-03-17T12:16:26.438Z,29.54
2023-03-17T12:19:10.016Z,30.13
2023-03-17T12:21:39.631Z,27.81
2023-03-17T12:24:47.894Z,27.31
2023-03-17T12:27:29.156Z,27.62
2023-03-17T12:30:17.535Z,27.97
2023-03-17T12:32:50.174Z,28.61
2023-03-17T12:35:35.016Z,28.95
2023-03-17T12:38:18.907Z,26.98
2023-03-17T12:40:51.293Z,26.26
2023-03-17T12:43:39.216Z,25.82
2023-03-17T12:46:55.808Z,26.13
2023-03-17T12:49:47.401Z,26.22
2023-03-17T12:53:14.374Z,25.81
2023-03-17T12:55:42.507Z,25.16
2023-03-17T12:58:45.653Z,24.31
2023-03-17T13:01:29.865Z,24.33
2023-03-17T13:04:18.423Z,24.43
2023-03-17T13:07:06.278Z,24.85
2023-03-17T13:09:37.757Z,24.93
2023-03-17T13:12:06.861Z,24.41
2023-03-17T13:14:39.506Z,24.22
2023-03-17T13:17:29.152Z,24.00
2023-03-17T13:20:08.065Z,24.03
2023-03-17T13:22:38.332Z,24.23
2023-03-17T13:25:13.447Z,24.07
2023-03-17T13:27:44.909Z,23.82
2023-03-17T13:30:25.780Z,23.78
2023-03-17T13:33:09.912Z,24.15
2023-03-17T13:36:02.457Z,24.58
2023-03-17T13:38:35.393Z,25.66
2023-03-17T13:41:37.779Z,26.06
2023-03-17T13:44:29.021Z,24.00
2023-03-17T13:47:11.965Z,22.46
2023-03-17T13:49:50.950Z,22.20
2023-03-17T13:52:28.259Z,22.14
2023-03-17T13:55:22.345Z,22.92
2023-03-17T13:58:11.854Z,22.77
2023-03-17T14:00:48.962Z,22.72
2023-03-17T14:03:20.329Z,23.69
2023-03-17T14:05:53.431Z,23.87
2023-03-17T14:08:39.414Z,23.73
2023-03-17T14:11:20.310Z,23.85
2023-03-17T14:14:36.659Z,23.90
2023-03-17T14:17:34.267Z,23.58
2023-03-17T14:20:08.503Z,23.49
2023-03-17T14:22:45.800Z,23.96
2023-03-17T14:25:42.852Z,23.30
2023-03-17T14:28:17.622Z,23.74
2023-03-17T14:31:00.447Z,23.27
2023-03-17T14:33:40.829Z,22.92
2023-03-17T14:36:14.219Z,22.33
2023-03-17T14:38:49.385Z,21.45
2023-03-17T14:41:23.342Z,21.05
2023-03-17T14:43:52.654Z,21.05
2023-03-17T14:46:34.630Z,20.82
2023-03-17T14:49:20.457Z,20.90
2023-03-17T14:51:53.553Z,21.16
2023-03-17T14:54:33.715Z,20.93
2023-03-17T14:57:15.646Z,20.24
2023-03-17T15:00:21.851Z,19.82
2023-03-17T15:03:05.709Z,19.78
2023-03-17T15:05:46.350Z,19.61
2023-03-17T15:08:41.251Z,19.48
2023-03-17T15:11:18.071Z,18.97
2023-03-17T15:13:49.783Z,19.01
2023-03-17T15:16:29.985Z,18.99
2023-03-17T15:19:25.108Z,18.75
2023-03-17T15:21:59.661Z,18.57
2023-03-17T15:24:44.351Z,18.64
2023-03-17T15:27:18.423Z,18.75
2023-03-17T15:29:46.731Z,18.75
2023-03-17T15:32:22.197Z,18.85
2023-03-17T15:34:52.003Z,18.57
2023-03-17T15:37:23.535Z,18.73
2023-03-17T15:39:55.050Z,18.81
2023-03-17T15:42:28.571Z,19.00
2023-03-17T15:44:56.185Z,19.08
2023-03-17T15:47:28.200Z,18.87
2023-03-17T15:50:10.276Z,19.01
2023-03-17T15:52:39.523Z,18.87
2023-03-17T15:55:22.103Z,18.91
2023-03-17T15:57:55.204Z,18.64
2023-03-17T16:00:29.434Z,18.61
2023-03-17T16:03:02.663Z,18.91
2023-03-17T16:05:32.825Z,19.04
2023-03-17T16:08:02.419Z,18.82
2023-03-17T16:10:35.522Z,18.73
2023-03-17T16:13:05.467Z,18.65
2023-03-17T16:15:38.452Z,18.71
2023-03-17T16:18:12.624Z,18.51
2023-03-17T16:20:52.786Z,18.57
2023-03-17T16:23:26.305Z,18.66
2023-03-17T16:25:59.321Z,18.43
2023-03-17T16:28:33.155Z,18.26
2023-03-17T16:31:02.000Z,18.04
2023-03-17T16:33:36.293Z,18.14
2023-03-17T16:36:05.859Z,18.03
2023-03-17T16:38:34.464Z,18.38
2023-03-17T16:41:24.071Z,18.40
2023-03-17T16:44:02.181Z,18.35
2023-03-17T16:46:35.108Z,18.24
2023-03-17T16:49:04.017Z,18.37
2023-03-17T16:51:31.029Z,18.28
2023-03-17T16:53:57.981Z,18.51
2023-03-17T16:56:27.802Z,18.52
2023-03-17T16:58:56.856Z,18.32
2023-03-17T17:01:27.271Z,18.20
2023-03-17T17:03:55.353Z,18.18
2023-03-17T17:06:25.070Z,18.19
2023-03-17T17:08:52.569Z,18.34
2023-03-17T17:11:20.815Z,18.37
2023-03-17T17:13:49.283Z,18.17
2023-03-17T17:16:39.904Z,17.95
2023-03-17T17:19:19.222Z,17.86
2023-03-17T17:21:46.116Z,17.68
2023-03-17T17:24:17.228Z,17.59
2023-03-17T17:26:48.861Z,17.43
2023-03-17T17:29:15.887Z,17.26
2023-03-17T17:31:42.788Z,17.33
2023-03-17T17:34:09.881Z,17.04
2023-03-17T17:36:38.880Z,17.02
2023-03-17T17:39:14.238Z,16.86
2023-03-17T17:41:44.174Z,16.81
2023-03-17T17:44:13.347Z,16.69
2023-03-17T17:46:40.338Z,16.58
2023-03-17T17:49:07.537Z,16.44
2023-03-17T17:51:38.811Z,16.44
2023-03-17T17:54:06.266Z,16.44
2023-03-17T17:56:36.627Z,16.35
2023-03-17T17:59:06.465Z,16.27
2023-03-17T18:01:35.826Z,16.32
2023-03-17T18:04:02.787Z,16.27
2023-03-17T18:06:29.749Z,16.20
2023-03-17T18:08:59.734Z,16.25
2023-03-17T18:11:26.597Z,16.38
2023-03-17T18:13:53.542Z,16.36
2023-03-17T18:16:20.953Z,16.57
2023-03-17T18:18:47.919Z,16.45
2023-03-17T18:21:18.376Z,16.27
2023-03-17T18:23:48.819Z,16.39
2023-03-17T18:26:17.842Z,16.46
2023-03-17T18:28:45.080Z,16.19
2023-03-17T18:31:27.463Z,16.21
2023-03-17T18:34:07.446Z,16.40
2023-03-17T18:36:35.053Z,16.28
2023-03-17T18:39:04.856Z,16.39
2023-03-17T18:41:36.604Z,16.34
2023-03-17T18:44:04.354Z,16.07
2023-03-17T18:46:31.499Z,16.05
2023-03-17T18:48:58.932Z,16.07
2023-03-17T18:51:25.924Z,16.11
2023-03-17T18:53:52.810Z,16.03
2023-03-17T18:56:21.512Z,16.08
2023-03-17T18:58:48.647Z,16.18
2023-03-17T19:01:20.669Z,16.09
2023-03-17T19:03:47.558Z,16.11
2023-03-17T19:06:18.470Z,16.12
2023-03-17T19:08:51.073Z,15.90
2023-03-17T19:11:21.704Z,15.91
2023-03-17T19:13:49.052Z,15.81
2023-03-17T19:16:18.726Z,15.72
2023-03-17T19:18:47.237Z,15.72
2023-03-17T19:21:14.139Z,15.66
2023-03-17T19:23:41.364Z,15.56
2023-03-17T19:26:12.823Z,15.67
2023-03-17T19:28:39.784Z,15.43
2023-03-17T19:31:07.447Z,15.42
2023-03-17T19:33:34.332Z,15.28
2023-03-17T19:36:09.510Z,15.20
2023-03-17T19:38:37.410Z,15.18
2023-03-17T19:41:06.178Z,15.05
2023-03-17T19:43:40.917Z,15.10
2023-03-17T19:46:11.765Z,15.39
2023-03-17T19:48:42.217Z,15.30
2023-03-17T19:51:10.124Z,15.41
2023-03-17T19:53:38.097Z,15.53
2023-03-17T19:56:06.650Z,15.64
2023-03-17T19:58:33.985Z,15.60
2023-03-17T20:01:01.496Z,15.56
2023-03-17T20:03:28.621Z,15.33
2023-03-17T20:05:58.541Z,15.24
2023-03-17T20:08:25.472Z,15.09
2023-03-17T20:10:54.135Z,14.96
2023-03-17T20:13:24.441Z,14.94
2023-03-17T20:15:54.339Z,15.07
2023-03-17T20:18:23.577Z,15.07
2023-03-17T20:21:00.383Z,15.12
2023-03-17T20:23:29.973Z,15.08
2023-03-17T20:26:02.919Z,15.10
2023-03-17T20:28:32.936Z,15.03
2023-03-17T20:31:02.948Z,15.02
2023-03-17T20:33:31.853Z,14.99
2023-03-17T20:35:59.465Z,14.95
2023-03-17T20:38:31.690Z,15.15
2023-03-17T20:41:11.425Z,15.28
2023-03-17T20:43:38.657Z,15.40
2023-03-17T20:46:09.794Z,15.25
2023-03-17T20:48:40.092Z,15.33
2023-03-17T20:51:10.877Z,15.38
2023-03-17T20:53:39.153Z,15.28
2023-03-17T20:56:06.530Z,15.21
2023-03-17T20:58:34.704Z,15.09
2023-03-17T21:01:03.186Z,15.24
2023-03-17T21:03:30.333Z,15.22
2023-03-17T21:05:57.307Z,15.13
2023-03-17T21:08:25.075Z,15.11
2023-03-17T21:10:52.857Z,15.07
2023-03-17T21:13:20.430Z,14.74
2023-03-17T21:15:48.601Z,14.54
2023-03-17T21:18:16.970Z,14.53
2023-03-17T21:20:46.061Z,14.91
2023-03-17T21:23:13.300Z,14.87
2023-03-17T21:25:44.050Z,14.83
2023-03-17T21:28:22.183Z,14.93
2023-03-17T21:30:50.351Z,14.97
2023-03-17T21:33:18.381Z,14.95
2023-03-17T21:35:48.661Z,15.10
2023-03-17T21:38:17.003Z,14.93
2023-03-17T21:40:45.036Z,15.10
2023-03-17T21:43:13.709Z,14.91
2023-03-17T21:45:45.952Z,14.96
2023-03-17T21:48:12.842Z,15.00
2023-03-17T21:50:42.065Z,14.96
2023-03-17T21:53:11.309Z,14.85
2023-03-17T21:55:38.388Z,14.80
2023-03-17T21:58:08.127Z,14.69
2023-03-17T22:00:45.068Z,14.50
2023-03-17T22:03:12.694Z,14.52
2023-03-17T22:05:42.323Z,14.51
2023-03-17T22:08:09.293Z,14.77
2023-03-17T22:10:39.716Z,14.79
2023-03-17T22:13:08.822Z,14.98
2023-03-17T22:15:36.102Z,14.96
2023-03-17T22:18:02.919Z,14.70
2023-03-17T22:20:30.154Z,14.70
2023-03-17T22:22:59.790Z,14.59
2023-03-17T22:25:26.650Z,14.66
2023-03-17T22:27:53.678Z,14.72
2023-03-17T22:30:21.189Z,14.47
2023-03-17T22:32:50.996Z,14.51
2023-03-17T22:35:23.267Z,14.54
2023-03-17T22:37:52.343Z,14.51
2023-03-17T22:40:22.499Z,14.62
2023-03-17T22:42:51.833Z,14.46
2023-03-17T22:45:21.266Z,14.20
2023-03-17T22:47:48.657Z,14.28
2023-03-17T22:50:16.237Z,14.14
2023-03-17T22:52:48.040Z,14.06
2023-03-17T22:55:19.983Z,14.26
2023-03-17T22:57:47.293Z,14.28
2023-03-17T23:00:17.231Z,14.18
2023-03-17T23:02:46.611Z,13.98
2023-03-17T23:05:14.586Z,13.83
2023-03-17T23:07:50.423Z,13.84
2023-03-17T23:10:23.064Z,13.98
2023-03-17T23:12:55.343Z,13.81
2023-03-17T23:15:25.004Z,13.69
2023-03-17T23:17:51.933Z,13.62
2023-03-17T23:20:19.143Z,13.37
2023-03-17T23:22:49.012Z,13.10
2023-03-17T23:25:16.232Z,12.99
2023-03-17T23:27:46.748Z,12.82
2023-03-17T23:30:15.237Z,12.52
2023-03-17T23:32:42.867Z,12.49
2023-03-17T23:35:15.758Z,12.43
2023-03-17T23:37:44.927Z,12.45
2023-03-17T23:40:17.201Z,12.23
2023-03-17T23:42:49.096Z,12.35
2023-03-17T23:45:18.077Z,12.40
2023-03-17T23:47:46.675Z,12.60
2023-03-17T23:50:15.693Z,12.66
2023-03-17T23:52:43.471Z,12.73
2023-03-17T23:55:14.467Z,12.77
2023-03-17T23:57:42.008Z,12.61
